| time (UTC) | temp F | wind direction | speed MPH | gust MPH | rain 1hr in | rain 24hr in | rain mn in | humidity % | barometer mb |
| 20260831053836 | 71 | 281 | 0.0 | 0.0 | 0.00 | 0.00 | 0.00 | 94 | 1012.2 |
| 20260831053335 | 71 | 256 | 0.0 | 0.0 | 0.00 | 0.00 | 0.00 | 94 | 1012.2 |
| 20260831052829 | 71 | 225 | 0.0 | 0.0 | 0.00 | 0.00 | 0.00 | 94 | 1012.5 |
| 20260831052328 | 72 | 178 | 0.0 | 0.0 | 0.00 | 0.00 | 0.00 | 93 | 1012.5 |
| 20260831051827 | 72 | 224 | 0.0 | 0.0 | 0.00 | 0.00 | 0.00 | 93 | 1012.5 |
| 20260831051326 | 72 | 209 | 0.0 | 0.0 | 0.00 | 0.00 | 0.00 | 92 | 1012.2 |
| 20260831050821 | 72 | 154 | 0.0 | 0.0 | 0.00 | 0.00 | 0.00 | 91 | 1012.5 |
| 20260831050320 | 72 | 231 | 0.0 | 0.0 | 0.00 | 0.00 | 0.00 | 91 | 1012.2 |
| 20260831045814 | 72 | 202 | 0.0 | 0.0 | 0.00 | 0.00 | 0.00 | 90 | 1012.2 |
| 20260831045314 | 72 | 234 | 0.0 | 0.0 | 0.00 | 0.00 | 0.00 | 90 | 1012.5 |
| 20260831044809 | 72 | 161 | 0.0 | 0.0 | 0.00 | 0.00 | 0.00 | 90 | 1012.2 |
| 20260831044304 | 72 | 157 | 0.0 | 0.0 | 0.00 | 0.00 | 0.00 | 90 | 1012.2 |
| 20260831043800 | 72 | 233 | 0.0 | 0.0 | 0.00 | 0.00 | 0.00 | 90 | 1012.2 |
| 20260831043254 | 72 | 210 | 0.0 | 0.0 | 0.00 | 0.00 | 0.00 | 89 | 1012.2 |
| 20260831042749 | 72 | 199 | 0.0 | 0.0 | 0.00 | 0.00 | 0.00 | 89 | 1012.2 |
| 20260831042243 | 72 | 240 | 0.0 | 0.0 | 0.00 | 0.00 | 0.00 | 89 | 1012.2 |
| 20260831041738 | 72 | 243 | 0.0 | 0.0 | 0.00 | 0.00 | 0.00 | 89 | 1012.2 |
| 20260831041238 | 72 | 274 | 0.0 | 0.0 | 0.00 | 0.00 | 0.00 | 89 | 1011.8 |
| 20260831040733 | 72 | 242 | 0.0 | 0.0 | 0.00 | 0.00 | 0.00 | 89 | 1012.2 |
| 20260831040232 | 72 | 236 | 0.0 | 0.0 | 0.00 | 0.00 | 0.00 | 89 | 1011.8 |
| 20260831035731 | 72 | 227 | 0.0 | 0.0 | 0.00 | 0.00 | 0.00 | 89 | 1011.8 |
| 20260831035230 | 72 | 251 | 0.0 | 0.0 | 0.00 | 0.00 | 0.00 | 89 | 1011.5 |
| 20260831034729 | 72 | 242 | 0.0 | 0.0 | 0.00 | 0.00 | 0.00 | 89 | 1011.5 |
| 20260831034225 | 72 | 228 | 0.0 | 0.0 | 0.00 | 0.00 | 0.00 | 89 | 1011.8 |
| 20260831033720 | 72 | 218 | 0.0 | 0.0 | 0.00 | 0.00 | 0.00 | 89 | 1011.5 |
| 20260831033220 | 73 | 239 | 0.0 | 0.0 | 0.00 | 0.00 | 0.00 | 88 | 1011.5 |
| 20260831032715 | 73 | 241 | 0.0 | 0.0 | 0.00 | 0.00 | 0.00 | 87 | 1011.5 |
| 20260831032210 | 73 | 226 | 0.0 | 0.0 | 0.00 | 0.00 | 0.00 | 87 | 1011.2 |
| 20260831031711 | 73 | 258 | 4.0 | 7.0 | 0.00 | 0.00 | 0.00 | 86 | 1011.2 |
| 20260831031205 | 73 | 257 | 3.0 | 3.0 | 0.00 | 0.00 | 0.00 | 85 | 1011.2 |
| 20260831030704 | 73 | 195 | 0.0 | 1.0 | 0.00 | 0.00 | 0.00 | 83 | 1010.8 |
| 20260831030203 | 73 | 225 | 5.0 | 6.0 | 0.00 | 0.00 | 0.00 | 82 | 1011.2 |
| 20260831025702 | 73 | 216 | 4.0 | 6.0 | 0.00 | 0.00 | 0.00 | 81 | 1010.8 |
| 20260831025156 | 73 | 179 | 4.0 | 5.0 | 0.00 | 0.00 | 0.00 | 79 | 1011.2 |
| 20260831024653 | 73 | 236 | 0.0 | 0.0 | 0.00 | 0.00 | 0.00 | 78 | 1011.2 |
| 20260831024151 | 73 | 259 | 0.0 | 1.0 | 0.00 | 0.00 | 0.00 | 79 | 1011.2 |
| 20260831023649 | 73 | 283 | 0.0 | 0.0 | 0.00 | 0.00 | 0.00 | 80 | 1011.2 |
| 20260831023143 | 73 | 236 | 5.0 | 6.0 | 0.00 | 0.00 | 0.00 | 79 | 1011.2 |
| 20260831022639 | 73 | 251 | 6.0 | 8.0 | 0.00 | 0.00 | 0.00 | 78 | 1011.2 |
| 20260831022134 | 73 | 235 | 8.0 | 10.0 | 0.00 | 0.00 | 0.00 | 78 | 1011.2 |
| 20260831021633 | 73 | 238 | 4.0 | 5.0 | 0.00 | 0.00 | 0.00 | 79 | 1011.2 |
| 20260831021128 | 73 | 241 | 5.0 | 7.0 | 0.00 | 0.00 | 0.00 | 80 | 1010.8 |
| 20260831020624 | 73 | 216 | 7.0 | 9.0 | 0.00 | 0.00 | 0.00 | 81 | 1011.2 |
| 20260831020118 | 73 | 234 | 1.0 | 5.0 | 0.00 | 0.00 | 0.00 | 83 | 1010.8 |
| 20260831015614 | 73 | 223 | 5.0 | 8.0 | 0.00 | 0.00 | 0.00 | 83 | 1011.2 |
| 20260831015108 | 74 | 261 | 8.0 | 10.0 | 0.00 | 0.00 | 0.00 | 84 | 1011.2 |
| 20260831014603 | 74 | 243 | 6.0 | 7.0 | 0.00 | 0.00 | 0.00 | 84 | 1010.8 |
| 20260831014059 | 74 | 238 | 5.0 | 7.0 | 0.00 | 0.00 | 0.00 | 84 | 1010.8 |
| 20260831013555 | 74 | 258 | 12.0 | 14.0 | 0.00 | 0.00 | 0.00 | 85 | 1011.2 |
| 20260831013054 | 74 | 149 | 5.0 | 6.0 | 0.00 | 0.00 | 0.00 | 86 | 1011.2 |
| 20260831012549 | 75 | 190 | 5.0 | 7.0 | 0.00 | 0.00 | 0.00 | 85 | 1010.8 |
| 20260831012044 | 75 | 227 | 10.0 | 11.0 | 0.00 | 0.00 | 0.00 | 85 | 1010.8 |
| 20260831011543 | 75 | 257 | 9.0 | 13.0 | 0.00 | 0.00 | 0.00 | 86 | 1011.2 |
| 20260831011039 | 75 | 218 | 8.0 | 10.0 | 0.00 | 0.00 | 0.00 | 86 | 1010.8 |
| 20260831010534 | 75 | 268 | 8.0 | 11.0 | 0.00 | 0.00 | 0.00 | 86 | 1010.8 |
| 20260831010030 | 75 | 195 | 7.0 | 10.0 | 0.00 | 0.00 | 0.00 | 86 | 1010.8 |
| 20260831005525 | 76 | 194 | 7.0 | 9.0 | 0.00 | 0.00 | 0.00 | 87 | 1011.2 |
| 20260831005024 | 76 | 253 | 7.0 | 9.0 | 0.00 | 0.00 | 0.00 | 85 | 1011.2 |
| 20260831004521 | 77 | 228 | 6.0 | 7.0 | 0.00 | 0.00 | 0.00 | 84 | 1010.8 |
| 20260831004016 | 76 | 237 | 7.0 | 9.0 | 0.00 | 0.00 | 0.00 | 85 | 1011.2 |
| 20260831003513 | 76 | 260 | 2.0 | 5.0 | 0.00 | 0.00 | 0.00 | 85 | 1010.8 |
| 20260831003008 | 77 | 168 | 7.0 | 8.0 | 0.00 | 0.00 | 0.00 | 85 | 1010.8 |
| 20260831002506 | 77 | 246 | 6.0 | 8.0 | 0.00 | 0.00 | 0.00 | 86 | 1010.8 |
| 20260831002001 | 77 | 219 | 7.0 | 10.0 | 0.00 | 0.00 | 0.00 | 86 | 1010.5 |
| 20260831001456 | 77 | 235 | 7.0 | 9.0 | 0.00 | 0.00 | 0.00 | 86 | 1010.5 |
| 20260831000953 | 78 | 227 | 9.0 | 10.0 | 0.00 | 0.00 | 0.00 | 86 | 1010.8 |
| 20260831000449 | 78 | 219 | 12.0 | 16.0 | 0.00 | 0.00 | 0.00 | 84 | 1010.5 |
| 20260830235947 | 78 | 252 | 9.0 | 11.0 | 0.00 | 0.00 | 0.00 | 84 | 1010.8 |
| 20260830235443 | 79 | 159 | 7.0 | 10.0 | 0.00 | 0.00 | 0.00 | 82 | 1010.5 |
| 20260830234938 | 79 | 230 | 7.0 | 9.0 | 0.00 | 0.00 | 0.00 | 83 | 1010.5 |
| 20260830234433 | 78 | 261 | 14.0 | 16.0 | 0.00 | 0.00 | 0.00 | 83 | 1010.5 |
| 20260830233928 | 80 | 238 | 7.0 | 11.0 | 0.00 | 0.00 | 0.00 | 82 | 1010.8 |
| 20260830233424 | 80 | 235 | 8.0 | 15.0 | 0.00 | 0.00 | 0.00 | 80 | 1010.8 |
| 20260830232919 | 80 | 238 | 8.0 | 10.0 | 0.00 | 0.00 | 0.00 | 81 | 1010.8 |
| 20260830232415 | 80 | 200 | 6.0 | 13.0 | 0.00 | 0.00 | 0.00 | 80 | 1010.8 |
| 20260830231912 | 80 | 210 | 2.0 | 3.0 | 0.00 | 0.00 | 0.00 | 81 | 1010.8 |
| 20260830231406 | 79 | 252 | 12.0 | 14.0 | 0.00 | 0.00 | 0.00 | 82 | 1010.8 |
| 20260830230906 | 79 | 261 | 8.0 | 10.0 | 0.00 | 0.00 | 0.00 | 82 | 1011.2 |
| 20260830230402 | 80 | 237 | 7.0 | 14.0 | 0.00 | 0.00 | 0.00 | 81 | 1010.8 |
| 20260830225900 | 80 | 160 | 6.0 | 9.0 | 0.00 | 0.00 | 0.00 | 80 | 1011.2 |
| 20260830225356 | 80 | 157 | 5.0 | 7.0 | 0.00 | 0.00 | 0.00 | 80 | 1011.2 |
| 20260830224850 | 80 | 251 | 9.0 | 10.0 | 0.00 | 0.00 | 0.00 | 81 | 1011.2 |
| 20260830224349 | 80 | 270 | 8.0 | 10.0 | 0.00 | 0.00 | 0.00 | 80 | 1011.2 |
| 20260830223847 | 80 | 247 | 11.0 | 11.0 | 0.00 | 0.00 | 0.00 | 80 | 1011.2 |
| 20260830223343 | 80 | 204 | 5.0 | 7.0 | 0.00 | 0.00 | 0.00 | 80 | 1011.2 |
| 20260830222842 | 79 | 242 | 11.0 | 15.0 | 0.00 | 0.00 | 0.00 | 81 | 1011.2 |
| 20260830222337 | 81 | 266 | 9.0 | 11.0 | 0.00 | 0.00 | 0.00 | 79 | 1011.5 |
| 20260830221832 | 80 | 276 | 12.0 | 14.0 | 0.00 | 0.00 | 0.00 | 80 | 1011.2 |
| 20260830221329 | 80 | 231 | 9.0 | 11.0 | 0.00 | 0.00 | 0.00 | 80 | 1011.2 |
| 20260830220829 | 80 | 246 | 7.0 | 9.0 | 0.00 | 0.00 | 0.00 | 80 | 1011.5 |
| 20260830220324 | 80 | 222 | 7.0 | 9.0 | 0.00 | 0.00 | 0.00 | 79 | 1011.5 |
| 20260830215822 | 80 | 248 | 11.0 | 11.0 | 0.00 | 0.00 | 0.00 | 80 | 1011.8 |
| 20260830215316 | 80 | 259 | 8.0 | 9.0 | 0.00 | 0.00 | 0.00 | 80 | 1011.8 |
| 20260830214811 | 79 | 248 | 10.0 | 13.0 | 0.00 | 0.00 | 0.00 | 80 | 1011.5 |
| 20260830214301 | 80 | 226 | 11.0 | 14.0 | 0.00 | 0.00 | 0.00 | 80 | 1011.8 |
| 20260830213800 | 80 | 215 | 9.0 | 11.0 | 0.00 | 0.00 | 0.00 | 80 | 1011.8 |
| 20260830213255 | 80 | 253 | 9.0 | 11.0 | 0.00 | 0.00 | 0.00 | 79 | 1012.2 |
| 20260830212751 | 81 | 220 | 9.0 | 9.0 | 0.00 | 0.00 | 0.00 | 78 | 1012.2 |
| 20260830212247 | 82 | 244 | 10.0 | 13.0 | 0.00 | 0.00 | 0.00 | 78 | 1012.2 |
| 20260830211746 | 82 | 254 | 6.0 | 8.0 | 0.00 | 0.00 | 0.00 | 78 | 1012.2 |
| 20260830211245 | 81 | 232 | 10.0 | 13.0 | 0.00 | 0.00 | 0.00 | 78 | 1012.2 |
| 20260830210742 | 81 | 256 | 10.0 | 11.0 | 0.00 | 0.00 | 0.00 | 80 | 1012.2 |
| 20260830210240 | 81 | 258 | 10.0 | 11.0 | 0.00 | 0.00 | 0.00 | 80 | 1012.2 |
| 20260830205738 | 81 | 275 | 5.0 | 8.0 | 0.00 | 0.00 | 0.00 | 80 | 1012.2 |
| 20260830205233 | 82 | 243 | 12.0 | 16.0 | 0.00 | 0.00 | 0.00 | 79 | 1012.2 |
| 20260830204728 | 82 | 207 | 5.0 | 9.0 | 0.00 | 0.00 | 0.00 | 77 | 1012.5 |
| 20260830204227 | 82 | 255 | 7.0 | 8.0 | 0.00 | 0.00 | 0.00 | 75 | 1012.2 |
| 20260830203723 | 83 | 214 | 5.0 | 7.0 | 0.00 | 0.00 | 0.00 | 76 | 1012.5 |
| 20260830203213 | 82 | 242 | 7.0 | 9.0 | 0.00 | 0.00 | 0.00 | 76 | 1012.2 |
| 20260830202711 | 83 | 241 | 9.0 | 11.0 | 0.00 | 0.00 | 0.00 | 76 | 1012.5 |
| 20260830202207 | 83 | 218 | 5.0 | 9.0 | 0.00 | 0.00 | 0.00 | 76 | 1012.5 |
| 20260830201701 | 83 | 274 | 12.0 | 14.0 | 0.00 | 0.00 | 0.00 | 77 | 1012.2 |
| 20260830201156 | 83 | 278 | 8.0 | 10.0 | 0.00 | 0.00 | 0.00 | 75 | 1012.5 |
| 20260830200652 | 83 | 259 | 6.0 | 9.0 | 0.00 | 0.00 | 0.00 | 77 | 1012.2 |
| 20260830200151 | 84 | 261 | 7.0 | 9.0 | 0.00 | 0.00 | 0.00 | 76 | 1012.5 |
| 20260830195647 | 84 | 240 | 5.0 | 8.0 | 0.00 | 0.00 | 0.00 | 76 | 1012.2 |
| 20260830195144 | 84 | 240 | 7.0 | 10.0 | 0.00 | 0.00 | 0.00 | 77 | 1012.5 |
| 20260830194643 | 84 | 240 | 9.0 | 10.0 | 0.00 | 0.00 | 0.00 | 76 | 1012.2 |
| 20260830194143 | 84 | 237 | 7.0 | 9.0 | 0.00 | 0.00 | 0.00 | 76 | 1012.2 |
| 20260830193638 | 84 | 255 | 8.0 | 10.0 | 0.00 | 0.00 | 0.00 | 76 | 1012.2 |
| 20260830193138 | 83 | 255 | 5.0 | 7.0 | 0.00 | 0.00 | 0.00 | 75 | 1012.2 |
| 20260830192634 | 83 | 245 | 5.0 | 6.0 | 0.00 | 0.00 | 0.00 | 77 | 1012.2 |
| 20260830192129 | 83 | 248 | 7.0 | 8.0 | 0.00 | 0.00 | 0.00 | 75 | 1012.2 |
| 20260830191624 | 82 | 260 | 5.0 | 7.0 | 0.00 | 0.00 | 0.00 | 77 | 1012.5 |
| 20260830191120 | 83 | 250 | 4.0 | 5.0 | 0.00 | 0.00 | 0.00 | 76 | 1012.5 |
| 20260830190615 | 82 | 287 | 8.0 | 10.0 | 0.00 | 0.00 | 0.00 | 75 | 1012.5 |
| 20260830190110 | 82 | 257 | 5.0 | 6.0 | 0.00 | 0.00 | 0.00 | 77 | 1012.5 |
| 20260830185608 | 83 | 264 | 7.0 | 7.0 | 0.00 | 0.00 | 0.00 | 76 | 1012.5 |
| 20260830185104 | 83 | 178 | 2.0 | 3.0 | 0.00 | 0.00 | 0.00 | 74 | 1012.9 |
| 20260830184603 | 83 | 250 | 6.0 | 8.0 | 0.00 | 0.00 | 0.00 | 74 | 1012.5 |
| 20260830184058 | 83 | 164 | 4.0 | 6.0 | 0.00 | 0.00 | 0.00 | 74 | 1012.9 |
| 20260830183553 | 82 | 263 | 3.0 | 5.0 | 0.00 | 0.00 | 0.00 | 75 | 1012.9 |
| 20260830183049 | 83 | 233 | 4.0 | 6.0 | 0.00 | 0.00 | 0.00 | 72 | 1012.9 |
| 20260830182544 | 83 | 211 | 4.0 | 5.0 | 0.00 | 0.00 | 0.00 | 74 | 1012.9 |
| 20260830182040 | 83 | 258 | 3.0 | 3.0 | 0.00 | 0.00 | 0.00 | 73 | 1012.5 |
| 20260830181536 | 82 | 197 | 1.0 | 3.0 | 0.00 | 0.00 | 0.00 | 73 | 1012.9 |
| 20260830181036 | 84 | 270 | 5.0 | 7.0 | 0.00 | 0.00 | 0.00 | 70 | 1012.5 |
| 20260830180535 | 83 | 172 | 0.0 | 1.0 | 0.00 | 0.00 | 0.00 | 71 | 1012.9 |
| 20260830180034 | 84 | 143 | 0.0 | 0.0 | 0.00 | 0.00 | 0.00 | 70 | 1012.9 |
| 20260830175533 | 86 | 223 | 0.0 | 0.0 | 0.00 | 0.00 | 0.00 | 66 | 1012.9 |
| 20260830175029 | 84 | 270 | 0.0 | 0.0 | 0.00 | 0.00 | 0.00 | 67 | 1012.9 |
| 20260830174524 | 83 | 178 | 0.0 | 0.0 | 0.00 | 0.00 | 0.00 | 68 | 1012.9 |
| 20260830174019 | 84 | 105 | 0.0 | 0.0 | 0.00 | 0.00 | 0.00 | 67 | 1012.9 |
| 20260830173515 | 83 | 312 | 0.0 | 0.0 | 0.00 | 0.00 | 0.00 | 69 | 1012.9 |
| 20260830173010 | 84 | 273 | 0.0 | 0.0 | 0.00 | 0.00 | 0.00 | 68 | 1012.9 |
| 20260830172507 | 85 | 133 | 0.0 | 0.0 | 0.00 | 0.00 | 0.00 | 64 | 1012.9 |
| 20260830172003 | 86 | 50 | 0.0 | 0.0 | 0.00 | 0.00 | 0.00 | 63 | 1012.9 |
| 20260830171457 | 83 | 348 | 0.0 | 0.0 | 0.00 | 0.00 | 0.00 | 67 | 1012.5 |
| 20260830170952 | 82 | 68 | 0.0 | 0.0 | 0.00 | 0.00 | 0.00 | 70 | 1012.9 |
| 20260830170452 | 83 | 73 | 0.0 | 0.0 | 0.00 | 0.00 | 0.00 | 69 | 1012.9 |
| 20260830165950 | 82 | 50 | 0.0 | 0.0 | 0.00 | 0.00 | 0.00 | 69 | 1012.9 |
| 20260830165446 | 83 | 53 | 0.0 | 0.0 | 0.00 | 0.00 | 0.00 | 69 | 1012.9 |
| 20260830164942 | 82 | 53 | 0.0 | 0.0 | 0.00 | 0.00 | 0.00 | 71 | 1012.9 |
| 20260830164438 | 82 | 74 | 0.0 | 0.0 | 0.00 | 0.00 | 0.00 | 69 | 1012.5 |
| 20260830163934 | 82 | 62 | 0.0 | 0.0 | 0.00 | 0.00 | 0.00 | 71 | 1012.9 |
| 20260830163431 | 81 | 64 | 0.0 | 0.0 | 0.00 | 0.00 | 0.00 | 72 | 1012.5 |
| 20260830162929 | 80 | 19 | 0.0 | 0.0 | 0.00 | 0.00 | 0.00 | 73 | 1012.5 |
| 20260830162426 | 80 | 131 | 0.0 | 0.0 | 0.00 | 0.00 | 0.00 | 74 | 1012.5 |
| 20260830161925 | 80 | 10 | 0.0 | 0.0 | 0.00 | 0.00 | 0.00 | 74 | 1012.9 |
| 20260830161420 | 80 | 27 | 0.0 | 0.0 | 0.00 | 0.00 | 0.00 | 74 | 1012.5 |
| 20260830160914 | 80 | 15 | 0.0 | 0.0 | 0.00 | 0.00 | 0.00 | 74 | 1012.5 |
| 20260830160411 | 79 | 59 | 0.0 | 0.0 | 0.00 | 0.00 | 0.00 | 77 | 1012.9 |
| 20260830155906 | 79 | 117 | 0.0 | 0.0 | 0.00 | 0.00 | 0.00 | 76 | 1012.9 |
| 20260830155403 | 79 | 48 | 0.0 | 0.0 | 0.00 | 0.00 | 0.00 | 76 | 1012.9 |
| 20260830154857 | 80 | 66 | 0.0 | 0.0 | 0.00 | 0.00 | 0.00 | 76 | 1012.5 |
| 20260830154353 | 78 | 47 | 0.0 | 0.0 | 0.00 | 0.00 | 0.00 | 78 | 1012.5 |
| 20260830153849 | 77 | 75 | 0.0 | 0.0 | 0.00 | 0.00 | 0.00 | 80 | 1012.9 |
| 20260830153344 | 77 | 130 | 0.0 | 0.0 | 0.00 | 0.00 | 0.00 | 79 | 1012.5 |
| 20260830152842 | 77 | 88 | 0.0 | 0.0 | 0.00 | 0.00 | 0.00 | 79 | 1012.9 |
| 20260830152332 | 78 | 73 | 0.0 | 0.0 | 0.00 | 0.00 | 0.00 | 79 | 1012.5 |
| 20260830151827 | 77 | 62 | 0.0 | 0.0 | 0.00 | 0.00 | 0.00 | 81 | 1012.9 |
| 20260830151326 | 76 | 65 | 0.0 | 0.0 | 0.00 | 0.00 | 0.00 | 83 | 1012.9 |
| 20260830150821 | 76 | 27 | 0.0 | 0.0 | 0.00 | 0.00 | 0.00 | 83 | 1012.5 |
| 20260830150320 | 76 | 22 | 0.0 | 0.0 | 0.00 | 0.00 | 0.00 | 84 | 1012.9 |
| 20260830145815 | 76 | 288 | 0.0 | 0.0 | 0.00 | 0.00 | 0.00 | 83 | 1012.5 |
| 20260830145311 | 76 | 32 | 0.0 | 0.0 | 0.00 | 0.00 | 0.00 | 83 | 1012.5 |
| 20260830144806 | 77 | 43 | 0.0 | 0.0 | 0.00 | 0.00 | 0.00 | 82 | 1012.9 |
| 20260830144301 | 76 | 50 | 0.0 | 0.0 | 0.00 | 0.00 | 0.00 | 84 | 1012.5 |
| 20260830143757 | 74 | 50 | 0.0 | 0.0 | 0.00 | 0.00 | 0.00 | 87 | 1012.5 |
| 20260830143256 | 73 | 50 | 0.0 | 0.0 | 0.00 | 0.00 | 0.00 | 88 | 1012.2 |
| 20260830142751 | 72 | 50 | 0.0 | 0.0 | 0.00 | 0.00 | 0.00 | 89 | 1012.9 |
| 20260830142246 | 71 | 51 | 0.0 | 0.0 | 0.00 | 0.00 | 0.00 | 90 | 1012.5 |
| 20260830141741 | 71 | 51 | 0.0 | 0.0 | 0.00 | 0.00 | 0.00 | 90 | 1012.5 |
| 20260830141236 | 70 | 56 | 0.0 | 0.0 | 0.00 | 0.00 | 0.00 | 91 | 1012.5 |
| 20260830140731 | 70 | 56 | 0.0 | 0.0 | 0.00 | 0.00 | 0.00 | 92 | 1012.2 |
| 20260830140226 | 69 | 56 | 0.0 | 0.0 | 0.00 | 0.00 | 0.00 | 92 | 1012.2 |
| 20260830135720 | 69 | 37 | 0.0 | 0.0 | 0.00 | 0.00 | 0.00 | 93 | 1012.2 |
| 20260830135216 | 69 | 37 | 0.0 | 0.0 | 0.00 | 0.00 | 0.00 | 93 | 1012.2 |
| 20260830134712 | 69 | 37 | 0.0 | 0.0 | 0.00 | 0.00 | 0.00 | 93 | 1012.2 |
| 20260830134206 | 69 | 37 | 0.0 | 0.0 | 0.00 | 0.00 | 0.00 | 93 | 1012.2 |
| 20260830133702 | 69 | 37 | 0.0 | 0.0 | 0.00 | 0.00 | 0.00 | 93 | 1012.2 |
| 20260830133157 | 69 | 37 | 0.0 | 0.0 | 0.00 | 0.00 | 0.00 | 93 | 1011.8 |
| 20260830132653 | 69 | 37 | 0.0 | 0.0 | 0.00 | 0.00 | 0.00 | 93 | 1012.2 |
| 20260830132149 | 69 | 37 | 0.0 | 0.0 | 0.00 | 0.00 | 0.00 | 92 | 1011.8 |
| 20260830131648 | 69 | 37 | 0.0 | 0.0 | 0.00 | 0.00 | 0.00 | 93 | 1011.8 |
| 20260830131142 | 69 | 37 | 0.0 | 0.0 | 0.00 | 0.00 | 0.00 | 93 | 1011.8 |
| 20260830130637 | 68 | 37 | 0.0 | 0.0 | 0.00 | 0.00 | 0.00 | 94 | 1011.8 |
| 20260830130132 | 69 | 37 | 0.0 | 0.0 | 0.00 | 0.00 | 0.00 | 93 | 1011.8 |
| 20260830125631 | 69 | 37 | 0.0 | 0.0 | 0.00 | 0.00 | 0.00 | 94 | 1011.5 |
| 20260830125126 | 69 | 37 | 0.0 | 0.0 | 0.00 | 0.00 | 0.00 | 94 | 1011.8 |
| 20260830124624 | 69 | 36 | 0.0 | 0.0 | 0.00 | 0.00 | 0.00 | 94 | 1011.8 |
| 20260830124119 | 69 | 37 | 0.0 | 0.0 | 0.00 | 0.00 | 0.00 | 94 | 1011.8 |
| 20260830123617 | 69 | 37 | 0.0 | 0.0 | 0.00 | 0.00 | 0.00 | 94 | 1011.5 |
| 20260830123112 | 69 | 37 | 0.0 | 0.0 | 0.00 | 0.00 | 0.00 | 94 | 1011.8 |
| 20260830122609 | 69 | 37 | 0.0 | 0.0 | 0.00 | 0.00 | 0.00 | 93 | 1011.8 |
| 20260830122105 | 69 | 37 | 0.0 | 0.0 | 0.00 | 0.00 | 0.00 | 93 | 1011.5 |
| 20260830121601 | 70 | 37 | 0.0 | 0.0 | 0.00 | 0.00 | 0.00 | 93 | 1011.8 |
| 20260830121100 | 69 | 37 | 0.0 | 0.0 | 0.00 | 0.00 | 0.00 | 93 | 1011.5 |
| 20260830120555 | 69 | 37 | 0.0 | 0.0 | 0.00 | 0.00 | 0.00 | 93 | 1011.8 |
| 20260830120051 | 69 | 37 | 0.0 | 0.0 | 0.00 | 0.00 | 0.00 | 93 | 1011.5 |
| 20260830115547 | 69 | 37 | 0.0 | 0.0 | 0.00 | 0.00 | 0.00 | 92 | 1011.5 |
| 20260830115042 | 70 | 37 | 0.0 | 0.0 | 0.00 | 0.00 | 0.00 | 92 | 1011.5 |
| 20260830114539 | 70 | 37 | 0.0 | 0.0 | 0.00 | 0.00 | 0.00 | 92 | 1011.5 |
| 20260830114038 | 70 | 37 | 0.0 | 0.0 | 0.00 | 0.00 | 0.00 | 92 | 1011.5 |
| 20260830113533 | 70 | 3 | 0.0 | 0.0 | 0.00 | 0.00 | 0.00 | 91 | 1011.5 |
| 20260830113029 | 70 | 3 | 0.0 | 0.0 | 0.00 | 0.00 | 0.00 | 91 | 1011.2 |
| 20260830112525 | 71 | 359 | 0.0 | 0.0 | 0.00 | 0.00 | 0.00 | 90 | 1011.2 |
| 20260830112021 | 71 | 355 | 0.0 | 0.0 | 0.00 | 0.00 | 0.00 | 90 | 1011.2 |
| 20260830111517 | 71 | 349 | 0.0 | 0.0 | 0.00 | 0.00 | 0.00 | 90 | 1011.5 |
| 20260830111013 | 71 | 334 | 0.0 | 0.0 | 0.00 | 0.00 | 0.00 | 90 | 1011.2 |
| 20260830110512 | 72 | 324 | 0.0 | 0.0 | 0.00 | 0.00 | 0.00 | 90 | 1011.2 |
| 20260830110007 | 72 | 325 | 0.0 | 0.0 | 0.00 | 0.00 | 0.00 | 90 | 1011.2 |
| 20260830105503 | 72 | 324 | 0.0 | 0.0 | 0.00 | 0.00 | 0.00 | 89 | 1011.2 |
| 20260830104959 | 72 | 300 | 0.0 | 0.0 | 0.00 | 0.00 | 0.00 | 89 | 1011.2 |
| 20260830104455 | 72 | 305 | 0.0 | 0.0 | 0.00 | 0.00 | 0.00 | 89 | 1011.2 |
| 20260830103950 | 71 | 311 | 0.0 | 0.0 | 0.00 | 0.00 | 0.00 | 89 | 1011.2 |
| 20260830103446 | 71 | 293 | 0.0 | 0.0 | 0.00 | 0.00 | 0.00 | 89 | 1011.5 |
| 20260830102943 | 71 | 343 | 0.0 | 0.0 | 0.00 | 0.00 | 0.00 | 89 | 1011.5 |
| 20260830102439 | 71 | 348 | 0.0 | 0.0 | 0.00 | 0.00 | 0.00 | 89 | 1011.2 |
| 20260830101935 | 71 | 347 | 0.0 | 0.0 | 0.00 | 0.00 | 0.00 | 90 | 1011.5 |
| 20260830101430 | 71 | 294 | 0.0 | 0.0 | 0.00 | 0.00 | 0.00 | 90 | 1011.2 |
| 20260830100930 | 71 | 266 | 0.0 | 0.0 | 0.00 | 0.00 | 0.00 | 90 | 1011.2 |
| 20260830100429 | 71 | 253 | 0.0 | 0.0 | 0.00 | 0.00 | 0.00 | 90 | 1011.2 |
| 20260830095927 | 71 | 255 | 0.0 | 0.0 | 0.00 | 0.00 | 0.00 | 90 | 1011.2 |
| 20260830095424 | 71 | 257 | 0.0 | 0.0 | 0.00 | 0.00 | 0.00 | 90 | 1011.5 |
| 20260830094920 | 71 | 304 | 0.0 | 0.0 | 0.00 | 0.00 | 0.00 | 91 | 1011.5 |
| 20260830094416 | 71 | 312 | 0.0 | 0.0 | 0.00 | 0.00 | 0.00 | 91 | 1011.2 |
| 20260830093912 | 71 | 278 | 0.0 | 0.0 | 0.00 | 0.00 | 0.00 | 91 | 1011.2 |
| 20260830093407 | 71 | 300 | 0.0 | 0.0 | 0.00 | 0.00 | 0.00 | 91 | 1011.2 |
| 20260830092902 | 71 | 294 | 0.0 | 0.0 | 0.00 | 0.00 | 0.00 | 91 | 1011.2 |
| 20260830092358 | 72 | 357 | 0.0 | 0.0 | 0.00 | 0.00 | 0.00 | 91 | 1011.2 |
| 20260830091854 | 72 | 337 | 0.0 | 0.0 | 0.00 | 0.00 | 0.00 | 91 | 1011.2 |
| 20260830091354 | 72 | 302 | 0.0 | 0.0 | 0.00 | 0.00 | 0.00 | 90 | 1011.2 |
| 20260830090853 | 72 | 306 | 0.0 | 0.0 | 0.00 | 0.00 | 0.00 | 89 | 1011.2 |
| 20260830090348 | 72 | 317 | 0.0 | 0.0 | 0.00 | 0.00 | 0.00 | 89 | 1011.2 |
| 20260830085848 | 72 | 331 | 0.0 | 0.0 | 0.00 | 0.00 | 0.00 | 88 | 1011.2 |
| 20260830085343 | 72 | 313 | 0.0 | 0.0 | 0.00 | 0.00 | 0.00 | 88 | 1011.2 |
| 20260830084839 | 72 | 15 | 0.0 | 0.0 | 0.00 | 0.00 | 0.00 | 88 | 1011.2 |
| 20260830084334 | 72 | 15 | 0.0 | 0.0 | 0.00 | 0.00 | 0.00 | 87 | 1011.5 |
| 20260830083829 | 72 | 15 | 0.0 | 0.0 | 0.00 | 0.00 | 0.00 | 87 | 1011.2 |
| 20260830083326 | 72 | 15 | 0.0 | 0.0 | 0.00 | 0.00 | 0.00 | 87 | 1011.2 |
| 20260830082825 | 72 | 15 | 0.0 | 0.0 | 0.00 | 0.00 | 0.00 | 87 | 1011.2 |
| 20260830082320 | 72 | 15 | 0.0 | 0.0 | 0.00 | 0.00 | 0.00 | 87 | 1011.5 |
| 20260830081815 | 72 | 15 | 0.0 | 0.0 | 0.00 | 0.00 | 0.00 | 87 | 1011.5 |
| 20260830081314 | 73 | 15 | 0.0 | 0.0 | 0.00 | 0.00 | 0.00 | 87 | 1011.5 |
| 20260830080809 | 72 | 15 | 0.0 | 0.0 | 0.00 | 0.00 | 0.00 | 87 | 1011.2 |
| 20260830080306 | 72 | 15 | 0.0 | 0.0 | 0.00 | 0.00 | 0.00 | 87 | 1011.2 |
| 20260830075804 | 72 | 15 | 0.0 | 0.0 | 0.00 | 0.00 | 0.00 | 87 | 1011.5 |
| 20260830075300 | 72 | 15 | 0.0 | 0.0 | 0.00 | 0.00 | 0.00 | 87 | 1011.5 |
| 20260830074755 | 72 | 39 | 0.0 | 0.0 | 0.00 | 0.00 | 0.00 | 87 | 1011.2 |
| 20260830074251 | 72 | 44 | 0.0 | 0.0 | 0.00 | 0.00 | 0.00 | 88 | 1011.2 |
| 20260830073746 | 72 | 45 | 0.0 | 0.0 | 0.00 | 0.00 | 0.00 | 88 | 1011.5 |
| 20260830073242 | 72 | 41 | 0.0 | 0.0 | 0.00 | 0.00 | 0.00 | 88 | 1011.2 |
| 20260830072742 | 73 | 9 | 0.0 | 0.0 | 0.00 | 0.00 | 0.00 | 89 | 1011.5 |
| 20260830072238 | 72 | 13 | 0.0 | 0.0 | 0.00 | 0.00 | 0.00 | 89 | 1011.2 |
| 20260830071732 | 72 | 68 | 0.0 | 0.0 | 0.00 | 0.00 | 0.00 | 89 | 1011.5 |
| 20260830071226 | 72 | 68 | 0.0 | 0.0 | 0.00 | 0.00 | 0.00 | 90 | 1011.2 |
| 20260830070725 | 72 | 68 | 0.0 | 0.0 | 0.00 | 0.00 | 0.00 | 89 | 1011.2 |
| 20260830070220 | 72 | 68 | 0.0 | 0.0 | 0.00 | 0.00 | 0.00 | 89 | 1011.2 |
| 20260830065719 | 72 | 68 | 0.0 | 0.0 | 0.00 | 0.00 | 0.00 | 89 | 1011.2 |
| 20260830065214 | 72 | 68 | 0.0 | 0.0 | 0.00 | 0.00 | 0.00 | 88 | 1011.2 |
| 20260830064712 | 73 | 69 | 0.0 | 0.0 | 0.00 | 0.00 | 0.00 | 88 | 1011.2 |
| 20260830064208 | 73 | 65 | 0.0 | 0.0 | 0.00 | 0.00 | 0.00 | 88 | 1011.2 |
| 20260830063707 | 73 | 68 | 0.0 | 0.0 | 0.00 | 0.00 | 0.00 | 88 | 1011.2 |
| 20260830063201 | 73 | 69 | 0.0 | 0.0 | 0.00 | 0.00 | 0.00 | 88 | 1011.2 |
| 20260830062655 | 73 | 74 | 0.0 | 0.0 | 0.00 | 0.00 | 0.00 | 88 | 1011.2 |
| 20260830062150 | 73 | 79 | 0.0 | 0.0 | 0.00 | 0.00 | 0.00 | 88 | 1011.2 |
| 20260830061644 | 73 | 83 | 0.0 | 0.0 | 0.00 | 0.00 | 0.00 | 88 | 1011.2 |
| 20260830061140 | 73 | 154 | 0.0 | 0.0 | 0.00 | 0.00 | 0.00 | 88 | 1010.8 |
| 20260830060638 | 73 | 205 | 0.0 | 0.0 | 0.00 | 0.00 | 0.00 | 88 | 1011.2 |
| 20260830060133 | 73 | 197 | 0.0 | 0.0 | 0.00 | 0.00 | 0.00 | 88 | 1011.2 |
| 20260830055628 | 73 | 319 | 0.0 | 0.0 | 0.00 | 0.00 | 0.00 | 88 | 1011.2 |
| 20260830055125 | 73 | 306 | 0.0 | 0.0 | 0.00 | 0.00 | 0.00 | 88 | 1011.2 |
| 20260830054619 | 73 | 278 | 0.0 | 0.0 | 0.00 | 0.00 | 0.00 | 88 | 1011.2 |
| 20260830054115 | 73 | 273 | 0.0 | 0.0 | 0.00 | 0.00 | 0.00 | 88 | 1011.2 |